Time;durP1;ratioP1;P1;durP2;ratioP2;P2;SDS_P1;SDS_P2;PMS_P1;PMS_P2;Temp;Humidity;BMP_temperature;BMP_pressure;BME280_temperature;BME280_humidity;BME280_pressure;Samples;Min_cycle;Max_cycle;Signal;HPM_P1;HPM_P2
2022/09/30 00:00:11;;;;;;;;;;;16.70;99.90;;;;;;5115266;28;19930;-66
2022/09/30 00:02:40;;;;;;;;;;;16.60;99.90;;;;;;5096896;28;19908;-66
2022/09/30 00:05:06;;;;;;;;;;;16.70;99.90;;;;;;5096960;28;20279;-66
2022/09/30 00:07:31;;;;;;;;;;;16.70;99.90;;;;;;5096707;28;20010;-66
2022/09/30 00:09:57;;;;;;;;;;;16.70;99.90;;;;;;5115387;28;20359;-66
2022/09/30 00:12:24;;;;;;;;;;;16.70;99.90;;;;;;5115023;28;20318;-66
2022/09/30 00:14:49;;;;;;;;;;;16.70;99.90;;;;;;5115075;28;20360;-65
2022/09/30 00:17:15;;;;;;;;;;;16.70;99.90;;;;;;5114937;28;19915;-65
2022/09/30 00:19:41;;;;;;;;;;;16.70;99.90;;;;;;5115234;28;19920;-65
2022/09/30 00:22:06;;;;;;;;;;;16.60;99.90;;;;;;5096547;28;19970;-65
2022/09/30 00:24:32;;;;;;;;;;;16.60;99.90;;;;;;5114623;28;19911;-65
2022/09/30 00:26:58;;;;;;;;;;;16.50;99.90;;;;;;5115058;28;20382;-65
2022/09/30 00:29:23;;;;;;;;;;;16.50;99.90;;;;;;5114676;28;19911;-65
2022/09/30 00:31:51;;;;;;;;;;;16.50;99.90;;;;;;5114671;28;19911;-65
2022/09/30 00:34:18;;;;;;;;;;;16.60;99.90;;;;;;5114719;28;19927;-65
2022/09/30 00:36:45;;;;;;;;;;;16.50;99.90;;;;;;5130509;27;19931;-65
2022/09/30 00:39:15;;;;;;;;;;;16.50;99.90;;;;;;5114494;28;20356;-65
2022/09/30 00:41:42;;;;;;;;;;;16.50;99.90;;;;;;5114496;28;19912;-65
2022/09/30 00:44:26;;;;;;;;;;;16.50;99.90;;;;;;5114454;28;19931;-65
2022/09/30 00:46:54;;;;;;;;;;;16.50;99.90;;;;;;5114444;28;20002;-64
2022/09/30 00:49:23;;;;;;;;;;;16.40;99.90;;;;;;5114347;28;19918;-64
2022/09/30 00:51:52;;;;;;;;;;;16.30;99.90;;;;;;5114364;28;19916;-66
2022/09/30 00:54:22;;;;;;;;;;;16.40;99.90;;;;;;5095956;28;20352;-66
2022/09/30 00:56:51;;;;;;;;;;;16.40;99.90;;;;;;5096095;28;19912;-66
2022/09/30 00:59:20;;;;;;;;;;;16.40;99.90;;;;;;5114574;28;19961;-66
2022/09/30 01:01:45;;;;;;;;;;;16.40;99.90;;;;;;5113915;28;20378;-66
2022/09/30 01:04:11;;;;;;;;;;;16.40;99.90;;;;;;5114215;28;19908;-66
2022/09/30 01:06:37;;;;;;;;;;;16.40;99.90;;;;;;5096238;28;19908;-66
2022/09/30 01:09:03;;;;;;;;;;;16.50;99.90;;;;;;5114053;28;19959;-65
2022/09/30 01:11:28;;;;;;;;;;;16.50;99.90;;;;;;5095772;28;19955;-66
2022/09/30 01:13:56;;;;;;;;;;;16.50;99.90;;;;;;5114060;28;19907;-66
2022/09/30 01:16:36;;;;;;;;;;;16.50;99.90;;;;;;5114088;28;19999;-66
2022/09/30 01:19:27;;;;;;;;;;;16.50;99.90;;;;;;5113998;28;20309;-65
2022/09/30 01:22:02;;;;;;;;;;;16.60;99.90;;;;;;5109606;28;19907;-65
2022/09/30 01:24:43;;;;;;;;;;;16.60;99.90;;;;;;5114262;28;19915;-67
2022/09/30 01:27:27;;;;;;;;;;;16.60;99.90;;;;;;5095677;28;20279;-67
2022/09/30 01:30:11;;;;;;;;;;;16.60;99.90;;;;;;5095570;28;19915;-67
2022/09/30 01:32:56;;;;;;;;;;;16.60;99.90;;;;;;5095295;28;19923;-67
2022/09/30 01:35:27;;;;;;;;;;;16.60;99.90;;;;;;5096588;28;19919;-66
2022/09/30 01:38:08;;;;;;;;;;;16.60;99.90;;;;;;5099779;28;19908;-66
2022/09/30 01:40:36;;;;;;;;;;;16.60;99.90;;;;;;5118103;28;19961;-66
2022/09/30 01:43:21;;;;;;;;;;;16.60;99.90;;;;;;5117921;28;19915;-66
2022/09/30 01:45:57;;;;;;;;;;;16.60;99.90;;;;;;5117995;28;19908;-66
2022/09/30 01:48:55;;;;;;;;;;;16.70;99.90;;;;;;5117876;28;19924;-66
2022/09/30 01:51:53;;;;;;;;;;;16.70;99.90;;;;;;5072244;28;19915;-66
2022/09/30 01:54:30;;;;;;;;;;;16.70;99.90;;;;;;5034536;28;19913;-68
2022/09/30 01:57:08;;;;;;;;;;;16.70;99.90;;;;;;5051142;28;20504;-68
2022/09/30 01:59:41;;;;;;;;;;;16.70;99.90;;;;;;5034683;28;19913;-68
2022/09/30 02:02:14;;;;;;;;;;;16.70;99.90;;;;;;5017934;28;19913;-67
2022/09/30 02:05:00;;;;;;;;;;;16.60;99.90;;;;;;5034557;28;20467;-66
2022/09/30 02:07:32;;;;;;;;;;;16.60;99.90;;;;;;5033890;28;19909;-67
2022/09/30 02:10:16;;;;;;;;;;;16.60;99.90;;;;;;5034363;28;19948;-68
2022/09/30 02:12:47;;;;;;;;;;;16.60;99.90;;;;;;5034371;28;20340;-69
2022/09/30 02:15:22;;;;;;;;;;;16.60;99.90;;;;;;5017634;28;20293;-66
2022/09/30 02:18:02;;;;;;;;;;;16.60;99.90;;;;;;5034306;28;20370;-68
2022/09/30 02:20:30;;;;;;;;;;;16.50;99.90;;;;;;5034286;28;20007;-69
2022/09/30 02:23:00;;;;;;;;;;;16.50;99.90;;;;;;5034200;28;19917;-68
2022/09/30 02:25:30;;;;;;;;;;;16.50;99.90;;;;;;5017913;28;20344;-67
2022/09/30 02:27:58;;;;;;;;;;;16.50;99.90;;;;;;5034254;28;19917;-69
2022/09/30 02:30:23;;;;;;;;;;;16.50;99.90;;;;;;5092396;28;19912;-65
2022/09/30 02:32:54;;;;;;;;;;;16.40;99.90;;;;;;5116655;28;20391;-66
2022/09/30 02:35:24;;;;;;;;;;;16.30;99.90;;;;;;5116650;28;19907;-68
2022/09/30 02:37:53;;;;;;;;;;;16.40;99.90;;;;;;5098711;28;19968;-65
2022/09/30 02:40:23;;;;;;;;;;;16.40;99.90;;;;;;5098472;28;19915;-66
2022/09/30 02:42:49;;;;;;;;;;;16.50;99.90;;;;;;5117140;28;19908;-67
2022/09/30 02:45:17;;;;;;;;;;;16.40;99.90;;;;;;5116421;28;20280;-68
2022/09/30 02:47:52;;;;;;;;;;;16.40;99.90;;;;;;5116364;28;20018;-67
2022/09/30 02:50:37;;;;;;;;;;;16.20;99.90;;;;;;5116695;28;20271;-67
2022/09/30 02:53:03;;;;;;;;;;;16.10;99.90;;;;;;5115949;28;19908;-67
2022/09/30 02:55:48;;;;;;;;;;;16.20;99.90;;;;;;5116622;28;20283;-68
2022/09/30 02:58:16;;;;;;;;;;;16.30;99.90;;;;;;5116650;28;20328;-68
2022/09/30 03:00:42;;;;;;;;;;;16.30;99.90;;;;;;5117163;28;19967;-66
2022/09/30 03:03:13;;;;;;;;;;;16.30;99.90;;;;;;5116872;28;20645;-66
2022/09/30 03:05:39;;;;;;;;;;;16.20;99.90;;;;;;5098484;28;19915;-66
2022/09/30 03:08:04;;;;;;;;;;;16.20;99.90;;;;;;5132560;27;19912;-65
2022/09/30 03:10:31;;;;;;;;;;;16.20;99.90;;;;;;5116806;28;19916;-66
2022/09/30 03:13:00;;;;;;;;;;;16.30;99.90;;;;;;5117024;28;19908;-68
2022/09/30 03:15:41;;;;;;;;;;;16.30;99.90;;;;;;5098306;28;20233;-65
2022/09/30 03:18:25;;;;;;;;;;;16.30;99.90;;;;;;5116285;28;19912;-67
2022/09/30 03:21:03;;;;;;;;;;;16.30;99.90;;;;;;5116093;28;19957;-67
2022/09/30 03:23:35;;;;;;;;;;;16.30;99.90;;;;;;5116047;28;19908;-67
2022/09/30 03:26:19;;;;;;;;;;;16.30;99.90;;;;;;5116040;28;19911;-68
2022/09/30 03:28:50;;;;;;;;;;;16.30;99.90;;;;;;5097536;28;20461;-67
2022/09/30 03:31:20;;;;;;;;;;;16.30;99.90;;;;;;5115881;28;19957;-67
2022/09/30 03:33:53;;;;;;;;;;;16.30;99.90;;;;;;5115368;28;19927;-68
2022/09/30 03:36:38;;;;;;;;;;;16.30;99.90;;;;;;5115869;28;19907;-68
2022/09/30 03:39:18;;;;;;;;;;;16.20;99.90;;;;;;5097368;28;19919;-68
2022/09/30 03:41:50;;;;;;;;;;;16.20;99.90;;;;;;5097383;28;19991;-66
2022/09/30 03:44:19;;;;;;;;;;;16.20;99.90;;;;;;5115993;28;20257;-66
2022/09/30 03:46:47;;;;;;;;;;;16.20;99.90;;;;;;5115642;28;19908;-69
2022/09/30 03:49:15;;;;;;;;;;;16.20;99.90;;;;;;5115493;28;19919;-69
2022/09/30 03:51:41;;;;;;;;;;;16.20;99.90;;;;;;5115795;28;20275;-69
2022/09/30 03:54:08;;;;;;;;;;;16.20;99.90;;;;;;5115438;28;19916;-68
2022/09/30 03:56:34;;;;;;;;;;;16.20;99.90;;;;;;5115503;28;20010;-68
2022/09/30 03:59:00;;;;;;;;;;;16.20;99.90;;;;;;5096091;28;20084;-68
2022/09/30 04:01:26;;;;;;;;;;;16.20;99.90;;;;;;5096993;28;19915;-69
2022/09/30 04:03:52;;;;;;;;;;;16.20;99.90;;;;;;5096918;28;19914;-67
2022/09/30 04:06:19;;;;;;;;;;;16.20;99.90;;;;;;5096989;28;20006;-68
2022/09/30 04:08:45;;;;;;;;;;;16.30;99.90;;;;;;5114823;28;20351;-67
2022/09/30 04:11:11;;;;;;;;;;;16.30;99.90;;;;;;5115077;28;19956;-67
2022/09/30 04:13:37;;;;;;;;;;;16.40;99.90;;;;;;5096768;28;19915;-69
2022/09/30 04:16:03;;;;;;;;;;;16.40;99.90;;;;;;5114985;28;20275;-69
2022/09/30 04:18:30;;;;;;;;;;;16.40;99.90;;;;;;5115005;28;19912;-67
2022/09/30 04:20:56;;;;;;;;;;;16.40;99.90;;;;;;5114576;28;20356;-67
2022/09/30 04:23:22;;;;;;;;;;;16.40;99.90;;;;;;5096574;28;20375;-68
2022/09/30 04:25:54;;;;;;;;;;;16.40;99.90;;;;;;5114844;28;19908;-67
2022/09/30 04:28:20;;;;;;;;;;;16.40;99.90;;;;;;5114946;28;19915;-67
2022/09/30 04:30:45;;;;;;;;;;;16.40;99.90;;;;;;5115027;28;20305;-66
2022/09/30 04:33:11;;;;;;;;;;;16.30;99.90;;;;;;5114108;28;20015;-67
2022/09/30 04:35:38;;;;;;;20.05;12.68;;;16.20;99.90;;;;;;5114215;28;19951;-69
2022/09/30 04:38:06;;;;;;;9.55;6.60;;;16.20;99.90;;;;;;5095855;28;20456;-68
2022/09/30 04:40:36;;;;;;;15.85;9.52;;;16.00;99.90;;;;;;5095907;28;20479;-69
2022/09/30 04:43:02;;;;;;;;;;;15.80;99.90;;;;;;5114285;28;20058;-68
2022/09/30 04:45:28;;;;;;;8.40;5.82;;;15.80;99.90;;;;;;5114115;28;19939;-69
2022/09/30 04:47:54;;;;;;;;;;;15.80;99.90;;;;;;5095904;28;20067;-68
2022/09/30 04:50:20;;;;;;;21.10;6.65;;;15.80;99.90;;;;;;5114342;28;19916;-66
2022/09/30 04:52:46;;;;;;;11.27;5.28;;;15.80;99.90;;;;;;5113936;28;20460;-67
2022/09/30 04:55:12;;;;;;;12.23;7.13;;;15.80;99.90;;;;;;5113875;28;20030;-67
2022/09/30 04:57:38;;;;;;;13.05;6.50;;;15.80;99.90;;;;;;5095569;28;20035;-68
2022/09/30 05:00:08;;;;;;;12.18;6.65;;;15.70;99.90;;;;;;5095478;28;20027;-67
2022/09/30 05:02:34;;;;;;;13.52;7.05;;;15.70;99.90;;;;;;5095389;28;20072;-69
2022/09/30 05:05:00;;;;;;;11.30;6.13;;;15.70;99.90;;;;;;5113640;28;20028;-68
2022/09/30 05:07:26;;;;;;;8.63;4.13;;;15.60;99.90;;;;;;5113631;28;20478;-68
2022/09/30 05:09:52;;;;;;;6.47;4.10;;;15.70;99.90;;;;;;5113077;28;20106;-69
2022/09/30 05:12:18;;;;;;;4.72;3.72;;;15.80;99.90;;;;;;5113789;28;20034;-69
2022/09/30 05:14:44;;;;;;;8.48;4.43;;;15.90;99.90;;;;;;5113580;28;20486;-67
2022/09/30 05:17:09;;;;;;;13.25;4.88;;;15.90;99.90;;;;;;5095290;28;20062;-68
2022/09/30 05:19:35;;;;;;;8.65;4.30;;;16.00;99.90;;;;;;5095205;28;20027;-66
2022/09/30 05:22:02;;;;;;;8.38;4.20;;;15.90;99.90;;;;;;5095143;28;20027;-67
2022/09/30 05:24:29;;;;;;;10.57;4.55;;;16.00;99.90;;;;;;5113487;28;20020;-67
2022/09/30 05:26:55;;;;;;;6.07;3.60;;;15.90;99.90;;;;;;5113529;28;20026;-66
2022/09/30 05:29:21;;;;;;;5.38;4.10;;;15.90;99.90;;;;;;5113316;28;20040;-68
2022/09/30 05:31:47;;;;;;;8.25;4.10;;;15.90;99.90;;;;;;5113255;28;20024;-68
2022/09/30 05:34:15;;;;;;;10.50;4.80;;;15.90;99.90;;;;;;5113374;28;20048;-67
2022/09/30 05:36:42;;;;;;;5.65;4.40;;;15.90;99.90;;;;;;5095026;28;20395;-68
2022/09/30 05:39:10;;;;;;;9.27;5.10;;;15.90;99.90;;;;;;5112189;28;20518;-68
2022/09/30 05:41:37;;;;;;;6.40;3.63;;;15.80;99.90;;;;;;5113550;28;20031;-69
2022/09/30 05:44:03;;;;;;;4.25;2.97;;;15.90;99.90;;;;;;5113365;28;20031;-65
2022/09/30 05:46:29;;;;;;;3.75;2.88;;;15.90;99.90;;;;;;5113288;28;20471;-68
2022/09/30 05:48:56;;;;;;;4.15;2.83;;;16.00;99.90;;;;;;5112687;28;20027;-68
2022/09/30 05:51:22;;;;;;;4.50;2.92;;;16.00;99.90;;;;;;5113074;28;20111;-68
2022/09/30 05:53:48;;;;;;;7.60;3.60;;;16.10;99.90;;;;;;5094860;28;20099;-66
2022/09/30 05:56:14;;;;;;;6.03;3.22;;;16.10;99.90;;;;;;5113047;28;20531;-68
2022/09/30 05:58:40;;;;;;;3.88;3.42;;;16.20;99.90;;;;;;5113167;28;20158;-68
2022/09/30 06:01:12;;;;;;;7.82;3.33;;;16.20;99.90;;;;;;5113124;28;20020;-66
2022/09/30 06:03:38;;;;;;;5.95;3.63;;;16.30;99.90;;;;;;5113167;28;20491;-64
2022/09/30 06:06:05;;;;;;;5.78;3.65;;;16.30;99.90;;;;;;5094802;28;20032;-65
2022/09/30 06:08:31;;;;;;;3.58;3.28;;;16.30;99.90;;;;;;5113105;28;20543;-66
2022/09/30 06:10:58;;;;;;;8.60;3.75;;;16.30;99.90;;;;;;5112948;28;20103;-70
2022/09/30 06:13:25;;;;;;;7.20;3.40;;;16.40;99.90;;;;;;5112558;28;20027;-65
2022/09/30 06:15:58;;;;;;;7.13;4.28;;;16.40;99.90;;;;;;5112863;28;20039;-66
2022/09/30 06:18:26;;;;;;;7.32;3.85;;;16.40;99.90;;;;;;5112950;28;20028;-65
2022/09/30 06:20:55;;;;;;;7.43;3.67;;;16.40;99.90;;;;;;5113116;28;20024;-65
2022/09/30 06:23:21;;;;;;;7.10;3.42;;;16.40;99.90;;;;;;5116738;28;20023;-65
2022/09/30 06:25:54;;;;;;;4.07;3.33;;;16.40;99.90;;;;;;5116752;28;20380;-67
2022/09/30 06:28:19;;;;;;;;;;;16.50;99.90;;;;;;5115941;28;20102;-67
2022/09/30 06:30:45;;;;;;;;;;;16.50;99.90;;;;;;5117061;28;19920;-65
2022/09/30 06:33:12;;;;;;;;;;;16.50;99.90;;;;;;5116545;28;20394;-65
2022/09/30 06:35:40;;;;;;;;;;;16.60;99.90;;;;;;5116723;28;20468;-64
2022/09/30 06:38:06;;;;;;;;;;;16.70;99.90;;;;;;5116895;28;19911;-66
2022/09/30 06:40:32;;;;;;;;;;;16.70;99.90;;;;;;5116519;28;19962;-68
2022/09/30 06:42:58;;;;;;;;;;;16.80;99.90;;;;;;5116847;28;19978;-67
2022/09/30 06:45:24;;;;;;;;;;;16.90;99.90;;;;;;5098391;28;19904;-67
2022/09/30 06:47:50;;;;;;;;;;;16.90;99.90;;;;;;5116915;28;20352;-64
2022/09/30 06:50:21;;;;;;;;;;;17.00;99.90;;;;;;5098303;28;19937;-65
2022/09/30 06:52:47;;;;;;;;;;;17.10;99.90;;;;;;5117019;28;19913;-65
2022/09/30 06:55:13;;;;;;;;;;;17.10;99.90;;;;;;5116548;28;20371;-68
2022/09/30 06:57:42;;;;;;;;;;;17.20;99.90;;;;;;5098164;28;20397;-66
2022/09/30 07:00:08;;;;;;;;;;;17.30;99.90;;;;;;5116472;28;20370;-66
2022/09/30 07:02:34;;;;;;;;;;;17.40;99.90;;;;;;5116296;28;19907;-66
2022/09/30 07:05:03;;;;;;;;;;;17.40;99.90;;;;;;5116286;28;20036;-66
2022/09/30 07:07:28;;;;;;;;;;;17.50;99.90;;;;;;5116134;28;20426;-66
2022/09/30 07:09:54;;;;;;;;;;;17.50;99.90;;;;;;5116320;28;19999;-66
2022/09/30 07:12:20;;;;;;;;;;;17.60;99.90;;;;;;5097735;28;19907;-66
2022/09/30 07:14:46;;;;;;;;;;;17.70;99.90;;;;;;5116212;28;19904;-66
2022/09/30 07:17:12;;;;;;;;;;;17.80;99.90;;;;;;5115861;28;20428;-66
2022/09/30 07:19:38;;;;;;;;;;;17.90;99.90;;;;;;5097718;28;19951;-67
2022/09/30 07:24:47;;;;;;;;;;;18.10;99.90;;;;;;5114141;28;19910;-66
2022/09/30 07:27:13;;;;;;;;;;;18.20;99.90;;;;;;5115050;28;20439;-67
2022/09/30 07:29:39;;;;;;;;;;;18.30;99.90;;;;;;5115772;28;19907;-68
2022/09/30 07:32:06;;;;;;;;;;;18.40;99.90;;;;;;5115492;28;19943;-67
2022/09/30 07:34:31;;;;;;;;;;;18.40;99.90;;;;;;5115754;28;19911;-67
2022/09/30 07:36:57;;;;;;;;;;;18.60;99.90;;;;;;5114895;28;19908;-67
2022/09/30 07:39:23;;;;;;;;;;;18.60;99.90;;;;;;5097407;28;20270;-67
2022/09/30 07:41:49;;;;;;;;;;;18.70;99.90;;;;;;5115662;28;20353;-67
2022/09/30 07:44:15;;;;;;;;;;;18.70;99.90;;;;;;5115553;28;19904;-67
2022/09/30 07:46:41;;;;;;;;;;;18.70;99.90;;;;;;5115285;28;19976;-67
2022/09/30 07:49:11;;;;;;;;;;;18.90;99.90;;;;;;5115007;28;20006;-67
2022/09/30 07:51:39;;;;;;;;;;;19.00;99.90;;;;;;5115441;28;19912;-67
2022/09/30 07:54:09;;;;;;;;;;;19.00;99.90;;;;;;5115427;28;19903;-67
2022/09/30 07:56:37;;;;;;;;;;;19.10;99.90;;;;;;5114960;28;20272;-67
2022/09/30 07:59:03;;;;;;;;;;;19.20;99.90;;;;;;5115361;28;19911;-67
2022/09/30 08:01:30;;;;;;;;;;;19.30;99.90;;;;;;5096618;28;19904;-67
2022/09/30 08:03:57;;;;;;;;;;;19.40;99.90;;;;;;5113373;28;19904;-68
2022/09/30 08:06:22;;;;;;;;;;;19.50;99.90;;;;;;5112999;28;20595;-67
2022/09/30 08:08:50;;;;;;;;;;;19.60;99.90;;;;;;5113350;28;19918;-67
2022/09/30 08:11:15;;;;;;;;;;;19.70;99.90;;;;;;5114303;28;20531;-67
2022/09/30 08:13:41;;;;;;;;;;;19.70;99.90;;;;;;5112766;28;20002;-66
2022/09/30 08:16:07;;;;;;;;;;;19.90;99.90;;;;;;5114720;28;20009;-67
2022/09/30 08:18:33;;;;;;;;;;;20.20;99.90;;;;;;5114811;28;19998;-69
2022/09/30 08:21:03;;;;;;;;;;;20.40;99.90;;;;;;5114734;28;20048;-67
2022/09/30 08:23:29;;;;;;;;;;;20.50;99.90;;;;;;5114701;28;19959;-66
2022/09/30 08:26:02;;;;;;;;;;;20.60;99.90;;;;;;5113411;28;19908;-69
2022/09/30 08:28:30;;;;;;;;;;;20.70;99.90;;;;;;5114695;28;19915;-66
2022/09/30 08:31:06;;;;;;;;;;;20.80;99.90;;;;;;5095461;28;19914;-68
2022/09/30 08:33:31;;;;;;;;;;;20.80;99.90;;;;;;5095611;28;20002;-67
2022/09/30 08:36:03;;;;;;;;;;;20.90;99.90;;;;;;5114424;28;20007;-68
2022/09/30 08:38:30;;;;;;;;;;;20.90;99.90;;;;;;5096207;28;19910;-67
2022/09/30 08:41:10;;;;;;;;;;;20.90;99.90;;;;;;5114326;28;19912;-65
2022/09/30 08:43:51;;;;;;;;;;;20.90;99.90;;;;;;5094828;28;20216;-69
2022/09/30 08:46:42;;;;;;;;;;;21.00;99.90;;;;;;5114086;28;20295;-65
2022/09/30 08:49:26;;;;;;;;;;;21.10;99.90;;;;;;5113996;28;20242;-68
2022/09/30 08:51:52;;;;;;;;;;;21.20;99.90;;;;;;5114296;28;19926;-68
2022/09/30 08:54:20;;;;;;;;;;;20.80;99.90;;;;;;5113730;28;19908;-68
2022/09/30 08:56:46;;;;;;;;;;;20.70;99.90;;;;;;5095658;28;20374;-68
2022/09/30 08:59:25;;;;;;;;;;;20.70;99.90;;;;;;5114245;28;19915;-68
2022/09/30 09:01:54;;;;;;;;;;;20.90;99.90;;;;;;5114200;28;19942;-68
2022/09/30 09:04:19;;;;;;;;;;;21.10;99.90;;;;;;5114107;28;19915;-68
2022/09/30 09:06:54;;;;;;;;;;;21.20;99.90;;;;;;5095503;28;20268;-68
2022/09/30 09:09:36;;;;;;;;;;;21.20;99.90;;;;;;5114028;28;20008;-68
2022/09/30 09:12:21;;;;;;;;;;;21.30;99.90;;;;;;5113740;28;19916;-68
2022/09/30 09:14:51;;;;;;;;;;;21.30;99.90;;;;;;5113654;28;20322;-68
2022/09/30 09:17:20;;;;;;;;;;;21.40;99.90;;;;;;5113906;28;20364;-68
2022/09/30 09:20:06;;;;;;;;;;;21.40;99.90;;;;;;5113866;28;20386;-68
2022/09/30 09:22:32;;;;;;;;;;;21.50;99.90;;;;;;5112768;28;19912;-67
2022/09/30 09:24:58;;;;;;;;;;;21.70;99.90;;;;;;5113734;28;19912;-68
2022/09/30 09:27:30;;;;;;;;;;;21.80;99.90;;;;;;5113660;28;19908;-67
2022/09/30 09:30:06;;;;;;;;;;;21.90;99.90;;;;;;5113796;28;20006;-67
2022/09/30 09:32:33;;;;;;;;;;;22.00;99.90;;;;;;5113497;28;19927;-69
2022/09/30 09:35:18;;;;;;;;;;;22.10;99.90;;;;;;5113689;28;19947;-70
2022/09/30 09:40:41;;;;;;;;;;;22.60;99.90;;;;;;5113554;28;20041;-68
2022/09/30 09:43:17;;;;;;;;;;;22.70;99.90;;;;;;5113746;28;19912;-68
2022/09/30 09:45:53;;;;;;;;;;;22.80;99.90;;;;;;5113651;28;19908;-69
2022/09/30 09:48:19;;;;;;;;;;;22.80;99.90;;;;;;5113810;28;19923;-69
2022/09/30 09:50:48;;;;;;;;;;;22.90;99.90;;;;;;5113571;28;19908;-71
2022/09/30 09:53:34;;;;;;;;;;;23.10;99.90;;;;;;5095309;28;19912;-71
2022/09/30 09:56:01;;;;;;;;;;;23.20;99.90;;;;;;5112846;28;19962;-67
2022/09/30 09:58:27;;;;;;;;;;;23.10;99.90;;;;;;5133372;27;19907;-68
2022/09/30 10:01:17;;;;;;;;;;;23.20;99.90;;;;;;5117847;28;19908;-68
2022/09/30 10:03:43;;;;;;;;;;;23.30;99.90;;;;;;5117543;28;19959;-68
2022/09/30 10:06:09;;;;;;;;;;;23.60;99.90;;;;;;5133326;27;19908;-68
2022/09/30 10:08:50;;;;;;;;;;;23.70;99.90;;;;;;5098947;28;20382;-69
2022/09/30 10:11:21;;;;;;;;;;;23.70;99.90;;;;;;5116866;28;19912;-68
2022/09/30 10:13:47;;;;;;;;;;;24.00;99.90;;;;;;5116941;28;20360;-69
2022/09/30 10:16:26;;;;;;;;;;;24.70;99.90;;;;;;5098636;28;20031;-68
2022/09/30 10:18:52;;;;;;;;;;;25.30;99.90;;;;;;5117149;28;19919;-68
2022/09/30 10:21:20;;;;;;;;;;;25.80;99.90;;;;;;5117166;28;19907;-68
2022/09/30 10:23:45;;;;;;;;;;;26.40;99.90;;;;;;5117081;28;19994;-68
2022/09/30 10:26:14;;;;;;;;;;;27.00;99.90;;;;;;5117044;28;20363;-69
2022/09/30 10:28:54;;;;;;;;;;;27.60;99.90;;;;;;5117104;28;20002;-69
2022/09/30 10:31:25;;;;;;;;;;;28.00;99.90;;;;;;5098667;28;19931;-69
2022/09/30 10:33:58;;;;;;;;;;;28.80;99.90;;;;;;5116376;28;19930;-69
2022/09/30 10:36:29;;;;;;;;;;;28.80;99.90;;;;;;5098522;28;19959;-69
2022/09/30 10:39:15;;;;;;;;;;;29.50;99.90;;;;;;5116738;28;19907;-69
2022/09/30 10:41:41;;;;;;;;;;;30.00;99.90;;;;;;5116623;28;20327;-69
2022/09/30 10:44:14;;;;;;;;;;;30.20;99.90;;;;;;5098276;28;19994;-69
2022/09/30 10:46:40;;;;;;;;;;;30.90;99.90;;;;;;5116642;28;19999;-71
2022/09/30 10:49:26;;;;;;;;;;;31.80;99.90;;;;;;5116497;28;19916;-70
2022/09/30 10:51:52;;;;;;;;;;;31.90;99.90;;;;;;5116006;28;19964;-71
2022/09/30 10:54:36;;;;;;;;;;;32.30;99.40;;;;;;5116811;28;19988;-71
2022/09/30 10:57:02;;;;;;;;;;;32.60;98.30;;;;;;5116639;28;20015;-69
2022/09/30 10:59:36;;;;;;;;;;;33.10;97.00;;;;;;5116442;28;20315;-69
2022/09/30 11:02:04;;;;;;;;;;;34.60;93.60;;;;;;5116233;28;19911;-69
2022/09/30 11:04:38;;;;;;;;;;;34.60;93.60;;;;;;5097880;28;19908;-69
2022/09/30 11:07:24;;;;;;;;;;;35.10;92.30;;;;;;5115748;28;19908;-70
2022/09/30 11:09:54;;;;;;;;;;;35.60;90.80;;;;;;5116202;28;19920;-69
2022/09/30 11:12:43;;;;;;;;;;;35.90;90.00;;;;;;5097989;28;19911;-70
2022/09/30 11:15:17;;;;;;;;;;;35.80;87.60;;;;;;5116043;28;20386;-70
2022/09/30 11:18:03;;;;;;;;;;;34.20;88.40;;;;;;5116161;28;19907;-71
2022/09/30 11:20:31;;;;;;;;;;;33.80;90.10;;;;;;5115361;28;19912;-70
2022/09/30 11:23:03;;;;;;;;;;;34.10;90.00;;;;;;5116000;28;19915;-69
2022/09/30 11:25:43;;;;;;;;;;;33.90;89.30;;;;;;5112716;28;19933;-70
2022/09/30 11:28:18;;;;;;;;;;;33.80;87.80;;;;;;5094612;28;19916;-69
2022/09/30 11:30:52;;;;;;;;;;;33.80;90.50;;;;;;5076963;28;20353;-69
2022/09/30 11:33:17;;;;;;;;;;;34.30;88.10;;;;;;5094588;28;19920;-69
2022/09/30 11:36:01;;;;;;;;;;;34.80;90.20;;;;;;5094800;28;20381;-69
2022/09/30 11:38:45;;;;;;;;;;;34.80;88.60;;;;;;5102989;28;19911;-68
2022/09/30 11:41:10;;;;;;;;;;;34.30;89.70;;;;;;5115322;28;20276;-68
2022/09/30 11:43:36;;;;;;;;;;;33.40;88.50;;;;;;5114864;28;19915;-69
2022/09/30 11:46:08;;;;;;;;;;;32.80;90.00;;;;;;5115020;28;19980;-69
2022/09/30 11:48:39;;;;;;;;;;;32.70;90.80;;;;;;5124409;27;19916;-69
2022/09/30 11:51:19;;;;;;;;;;;32.30;91.50;;;;;;5107661;28;19922;-69
2022/09/30 11:54:11;;;;;;;;;;;32.20;91.40;;;;;;5114929;28;19953;-69
2022/09/30 11:56:44;;;;;;;;;;;32.00;91.20;;;;;;5075918;28;19940;-69
2022/09/30 11:59:28;;;;;;;;;;;32.40;90.90;;;;;;5115054;28;19908;-69
2022/09/30 12:01:56;;;;;;;;;;;32.40;91.00;;;;;;5114349;28;19942;-69
2022/09/30 12:04:34;;;;;;;;;;;33.90;90.60;;;;;;5114989;28;19961;-69
2022/09/30 12:07:03;;;;;;;;;;;34.20;88.90;;;;;;5114911;28;19915;-69
2022/09/30 12:09:29;;;;;;;;;;;;;;;;;;5114871;28;20335;-69
2022/09/30 12:11:54;;;;;;;;;;;35.00;87.20;;;;;;5114845;28;19998;-69
2022/09/30 12:14:29;;;;;;;;;;;35.80;84.00;;;;;;5114558;28;19998;-69
2022/09/30 12:16:56;;;;;;;;;;;36.20;80.90;;;;;;5111531;28;19919;-70
2022/09/30 12:19:45;;;;;;;;;;;35.90;79.80;;;;;;5112764;28;19949;-68
2022/09/30 12:22:22;;;;;;;;;;;35.80;80.80;;;;;;5100595;28;19908;-68
2022/09/30 12:24:47;;;;;;;;;;;36.30;81.60;;;;;;5094358;28;19908;-70
2022/09/30 12:27:15;;;;;;;;;;;36.80;78.20;;;;;;5094081;28;20272;-69
2022/09/30 12:32:35;;;;;;;;;;;;;;;;;;5094042;28;20296;-69
2022/09/30 12:35:18;;;;;;;;;;;36.00;77.20;;;;;;5094254;28;19908;-69
2022/09/30 12:37:55;;;;;;;;;;;36.50;77.10;;;;;;5094256;28;19915;-69
2022/09/30 12:40:47;;;;;;;;;;;35.70;93.40;;;;;;5094286;28;19924;-69
2022/09/30 12:43:24;;;;;;;;;;;35.50;83.30;;;;;;5094069;28;19915;-69
2022/09/30 12:46:09;;;;;;;;;;;35.50;75.70;;;;;;5093999;28;19909;-68
2022/09/30 12:48:43;;;;;;;;;;;34.70;77.30;;;;;;5093986;28;19920;-68
2022/09/30 12:51:10;;;;;;;;;;;32.30;82.40;;;;;;5094425;28;19971;-68
2022/09/30 12:53:37;;;;;;;;;;;32.00;82.70;;;;;;5093996;28;19915;-68
2022/09/30 12:56:05;;;;;;;;;;;32.60;83.50;;;;;;5093975;28;19931;-68
2022/09/30 12:58:32;;;;;;;;;;;33.30;84.00;;;;;;5093793;28;19959;-68
2022/09/30 13:01:06;;;;;;;;;;;33.20;84.10;;;;;;5093873;28;19908;-68
2022/09/30 13:03:51;;;;;;;;;;;32.50;84.90;;;;;;5094165;28;19912;-68
2022/09/30 13:06:18;;;;;;;;;;;32.50;86.60;;;;;;5093897;28;19908;-68
2022/09/30 13:09:08;;;;;;;;;;;33.80;85.40;;;;;;5093705;28;19916;-68
2022/09/30 13:11:35;;;;;;;;;;;34.40;86.00;;;;;;5085622;28;19908;-68
2022/09/30 13:14:19;;;;;;;;;;;33.30;86.10;;;;;;5093673;28;19908;-68
2022/09/30 13:16:59;;;;;;;;;;;32.10;85.90;;;;;;5093582;28;19908;-68
2022/09/30 13:19:36;;;;;;;;;;;31.40;90.00;;;;;;5093558;28;19908;-69
2022/09/30 13:22:17;;;;;;;;;;;31.10;89.90;;;;;;5093588;28;19912;-68
2022/09/30 13:27:40;;;;;;;;;;;29.90;91.80;;;;;;5093553;28;19920;-68
2022/09/30 13:30:12;;;;;;;;;;;29.50;92.10;;;;;;5094618;28;20365;-69
2022/09/30 13:32:38;;;;;;;;;;;29.10;91.90;;;;;;5099975;28;19920;-69
2022/09/30 13:35:22;;;;;;;;;;;28.90;92.80;;;;;;5100243;28;19912;-69
2022/09/30 13:38:08;;;;;;;;;;;28.70;93.60;;;;;;5100082;28;19990;-68
2022/09/30 13:40:35;;;;;;;;;;;28.50;94.30;;;;;;5099724;28;19916;-68
2022/09/30 13:43:03;;;;;;;;;;;28.10;95.00;;;;;;5100462;28;20003;-68
2022/09/30 13:45:32;;;;;;;;;;;27.80;95.50;;;;;;5100091;28;20284;-67
2022/09/30 13:48:01;;;;;;;;;;;27.40;96.00;;;;;;5099992;28;19961;-68
2022/09/30 13:50:31;;;;;;;;;;;27.20;97.10;;;;;;5100107;28;19908;-67
2022/09/30 13:53:01;;;;;;;;;;;27.00;97.90;;;;;;5100135;28;19987;-69
2022/09/30 13:55:36;;;;;;;;;;;26.70;98.30;;;;;;5100004;28;19943;-68
2022/09/30 13:58:21;;;;;;;;;;;26.60;98.90;;;;;;5100016;28;19912;-69
2022/09/30 14:00:59;;;;;;;;;;;26.40;99.50;;;;;;5099656;28;20299;-69
2022/09/30 14:03:27;;;;;;;;;;;26.30;99.90;;;;;;5099937;28;19954;-67
2022/09/30 14:06:13;;;;;;;;;;;26.20;99.90;;;;;;5099958;28;19995;-68
2022/09/30 14:08:47;;;;;;;;;;;26.00;99.90;;;;;;5099827;28;20410;-68
2022/09/30 14:11:31;;;;;;;;;;;25.90;99.90;;;;;;5099881;28;19908;-69
2022/09/30 14:14:16;;;;;;;;;;;25.80;99.90;;;;;;5081651;28;19912;-69
2022/09/30 14:17:04;;;;;;;;;;;25.70;99.90;;;;;;5099913;28;19959;-69
2022/09/30 14:19:29;;;;;;;;;;;25.60;99.90;;;;;;5099927;28;19985;-69
2022/09/30 14:21:56;;;;;;;;;;;25.60;99.90;;;;;;5099885;28;20352;-69
2022/09/30 14:24:26;;;;;;;;;;;25.50;99.90;;;;;;5099833;28;19963;-69
2022/09/30 14:26:52;;;;;;;;;;;25.50;99.90;;;;;;5100100;28;20015;-68
2022/09/30 14:29:36;;;;;;;;;;;25.50;99.90;;;;;;5100008;28;20419;-69
2022/09/30 14:32:25;;;;;;;;;;;25.40;99.90;;;;;;5099565;28;19920;-68
2022/09/30 14:34:52;;;;;;;;;;;25.30;99.90;;;;;;5099752;28;19912;-69
2022/09/30 14:37:23;;;;;;;;;;;25.20;99.90;;;;;;5099726;28;20318;-69